createdAt,value
2022-10-05T10:55:51.594Z,66.7
2022-10-05T11:01:29.893Z,67.3
2022-10-05T11:07:11.390Z,67.7
2022-10-05T11:12:51.417Z,68.2
2022-10-05T11:18:31.618Z,66.9
2022-10-05T11:24:32.905Z,63.4
2022-10-05T11:30:12.023Z,61.8
2022-10-05T11:35:54.349Z,63.3
2022-10-05T11:41:31.887Z,64.5
2022-10-05T11:47:15.557Z,64.1
2022-10-05T11:52:54.025Z,63.8
2022-10-05T11:58:55.918Z,64.9
2022-10-05T12:04:38.187Z,66
2022-10-05T12:10:16.012Z,66.8
2022-10-05T12:15:39.288Z,67.3
2022-10-05T12:21:01.396Z,67.7
2022-10-05T12:26:39.876Z,68
2022-10-05T12:32:17.010Z,68.2
2022-10-05T12:38:42.388Z,68.4
2022-10-05T12:44:21.162Z,68.4
2022-10-05T12:50:05.472Z,68.4
2022-10-05T12:55:27.612Z,68.2
2022-10-05T13:01:11.324Z,68.1
2022-10-05T13:06:35.813Z,67.9
2022-10-05T13:12:03.816Z,67.8
2022-10-05T13:17:44.732Z,67.7
2022-10-05T13:23:21.777Z,67.6
2022-10-05T13:29:02.624Z,67.3
2022-10-05T13:34:42.757Z,67.1
2022-10-05T13:40:20.726Z,66.5
2022-10-05T13:45:59.131Z,66.1
2022-10-05T13:51:23.487Z,65.6
2022-10-05T13:57:01.578Z,65.1
2022-10-05T14:02:24.204Z,64.3
2022-10-05T14:07:51.888Z,63.6
2022-10-05T14:13:29.746Z,62.9
2022-10-05T14:18:55.836Z,62.2
2022-10-05T14:24:39.540Z,61.5
2022-10-05T14:30:04.747Z,60.7
2022-10-05T14:35:34.727Z,59.9
2022-10-05T14:41:14.150Z,59.1
2022-10-05T14:46:28.280Z,58.4
2022-10-05T14:52:06.578Z,55.9
2022-10-05T14:57:44.818Z,52.3
